KLRF

Little Rock AFB Airport

Jacksonville, Arkansas, USA
METAR KLRF 172056Z AUTO 27006KT 10SM OVC014 09/07 A3012 RMK AO2 CIG 011 RWY07 SLP204 T00900068 53006
Observed Flight Rules
Feb-17 @ 20:56 UTC (40 minutes ago) Marginal Visual Flight Rules
Wind Visibility Clouds
270° at 6 knots 10 miles
  • Overcast at 1,400' AGL
Temperatures Readings
Current 9°C / 48°F
Dewpoint 7°C / 45°F
Humidity 87%
Altimeter 30.12" Hg
Pressure 1020.4 hPa
Elevation 95
METAR KLRF 172056Z AUTO 27006KT 10SM OVC014 09/07 A3012 RMK AO2 CIG 011 RWY07 SLP204 T00900068 53006
Observed Flight Rules
Feb-17 @ 20:56 UTC
(40 minutes ago)
MVFR
Wind Visibility
270° at 6 knots 10 miles
Clouds
  • Overcast at 1,400' AGL
Temperature Dewpoint
9°C / 48°F 7°C / 45°F
Humidity Altimeter Pressure
87% 30.12" Hg 1020.4 hPa